This is the latest recevied weather packets stored in our database for station/object UR7D-12. If no packets are shown the sender has not sent any weather packets the latest 10 day(s).
| Time | Temp. | Humidity | Pressure | Rain* | Wind** | Luminosity | Snow |
|---|---|---|---|---|---|---|---|
| 1777697446 | 7.22° C | 73% | 997.6 hPa | 0 mm | - | - | - |
| 1777697149 | 7.22° C | 74% | 997.6 hPa | 0 mm | - | - | - |
| 1777696545 | 6.67° C | 74% | 997.5 hPa | 0 mm | - | - | - |
| 1777696246 | 6.67° C | 74% | 997.5 hPa | 0 mm | - | - | - |
| 1777695947 | 6.67° C | 75% | 997.4 hPa | 0 mm | - | - | - |
| 1777695644 | 6.67° C | 75% | 997.4 hPa | 0 mm | - | - | - |
| 1777694743 | 6.11° C | 76% | 997.3 hPa | 0 mm | - | - | - |
| 1777694143 | 6.11° C | 76% | 997.3 hPa | 0 mm | - | - | - |
| 1777693844 | 6.11° C | 76% | 997.3 hPa | 0 mm | - | - | - |
| 1777692945 | 5.56° C | 77% | 997.2 hPa | 0 mm | - | - | - |
| 1777692641 | 5.56° C | 77% | 997.3 hPa | 0 mm | - | - | - |
| 1777692346 | 5.56° C | 77% | 997.2 hPa | 0 mm | - | - | - |
| 1777692042 | 5.56° C | 77% | 997.3 hPa | 0 mm | - | - | - |
| 1777691740 | 6.11° C | 76% | 997.2 hPa | 0 mm | - | - | - |
| 1777691441 | 5.56° C | 77% | 997.2 hPa | 0 mm | - | - | - |
| 1777691143 | 5.56° C | 77% | 997.1 hPa | 0 mm | - | - | - |
| 1777690840 | 5.56° C | 77% | 997.1 hPa | 0 mm | - | - | - |
| 1777690543 | 5.56° C | 76% | 997.1 hPa | 0 mm | - | - | - |
| 1777690240 | 5.56° C | 76% | 997.1 hPa | 0 mm | - | - | - |
| 1777689940 | 6.11° C | 76% | 997.1 hPa | 0 mm | - | - | - |
| 1777689640 | 6.11° C | 75% | 997.1 hPa | 0 mm | - | - | - |
| 1777688437 | 6.11° C | 75% | 997.2 hPa | 0 mm | - | - | - |
| 1777687539 | 6.11° C | 74% | 997.3 hPa | 0 mm | - | - | - |
| 1777673725 | 10° C | 59% | 997.6 hPa | 0 mm | - | - | - |
| 1777673425 | 10° C | 59% | 997.6 hPa | 0 mm | - | - | - |
* Rain latest hour (hover to see other rain measurements)
** Current wind speed in m/s (hover to see current wind gust speed)